M I D A S
Marine Information and Data Acquisition System
Tripno 1585 of the Zeeleeuw from 2008-10-10 06:02:11 to 2008-10-10 16:15:36
Back to CruiseResearch ActivitiesStationsMapUnderway DataData graphs

EquipmentUnitsComments
TimeDGPSUTC
LatitudeDGPSDM.mWGS84
LongitudeDGPSDM.mWGS84
SpeedMeteo Stationm/sRelative wind speed
DirectionMeteo StationdegRelative wind direction
TemperatureMeteo Stationdeg CelciusAir temperature
PressureMeteo StationPaAtmospheric pressure
HumidityMeteo Station%Relative humidity
Missing or incorrect values are displayed as -999
Metereological data collected by the RV Zeeleeuw from 2008-10-10 06:02:11 to 2008-10-10 16:15:36
Time Latitude Longitude Speed Direction Temperature Pressure Humidity
2008-10-10 06:04 51°13.622 2°56.047 -999 -999 -999 -999 -999
2008-10-10 06:06 51°13.658 2°55.912 -999 -999 -999 -999 -999
2008-10-10 06:08 51°13.773 2°55.693 -999 -999 -999 -999 -999
2008-10-10 06:10 51°13.924 2°55.646 -999 -999 -999 -999 -999
2008-10-10 06:12 51°14.006 2°55.525 -999 -999 -999 -999 -999
2008-10-10 06:14 51°14.261 2°55.248 -999 -999 -999 -999 -999
2008-10-10 06:16 51°14.399 2°54.705 -999 -999 -999 -999 -999
2008-10-10 06:18 51°14.232 2°54.143 -999 -999 -999 -999 -999
2008-10-10 06:20 51°14.047 2°53.6 -999 -999 -999 -999 -999
2008-10-10 06:22 51°13.853 2°53.062 -999 -999 -999 -999 -999
2008-10-10 06:24 51°13.663 2°52.511 -999 -999 -999 -999 -999
2008-10-10 06:26 51°13.486 2°51.95 -999 -999 -999 -999 -999
2008-10-10 06:28 51°13.306 2°51.392 -999 -999 -999 -999 -999
2008-10-10 06:30 51°13.123 2°50.844 -999 -999 -999 -999 -999
2008-10-10 06:32 51°12.938 2°50.295 -999 -999 -999 -999 -999
2008-10-10 06:34 51°12.752 2°49.75 -999 -999 -999 -999 -999
2008-10-10 06:36 51°12.578 2°49.192 -999 -999 -999 -999 -999
2008-10-10 06:38 51°12.407 2°48.637 -999 -999 -999 -999 -999
2008-10-10 06:40 51°12.233 2°48.09 -999 -999 -999 -999 -999
2008-10-10 06:42 51°12.065 2°47.533 -999 -999 -999 -999 -999
2008-10-10 06:44 51°11.896 2°46.979 -999 -999 -999 -999 -999
2008-10-10 06:46 51°11.779 2°46.388 -999 -999 -999 -999 -999
2008-10-10 06:48 51°11.716 2°45.781 -999 -999 -999 -999 -999
2008-10-10 06:50 51°11.671 2°45.172 -999 -999 -999 -999 -999
2008-10-10 06:52 51°11.629 2°44.567 -999 -999 -999 -999 -999
2008-10-10 06:54 51°11.569 2°43.973 -999 -999 -999 -999 -999
2008-10-10 06:56 51°11.527 2°43.373 -999 -999 -999 -999 -999
2008-10-10 06:58 51°11.413 2°42.804 -999 -999 -999 -999 -999
2008-10-10 07:00 51°11.271 2°42.251 -999 -999 -999 -999 -999
2008-10-10 07:02 51°11.135 2°41.694 -999 -999 -999 -999 -999
2008-10-10 07:04 51°10.982 2°41.147 -999 -999 -999 -999 -999
2008-10-10 07:06 51°10.824 2°40.603 -999 -999 -999 -999 -999
2008-10-10 07:08 51°10.666 2°40.057 -999 -999 -999 -999 -999
2008-10-10 07:10 51°10.501 2°39.518 -999 -999 -999 -999 -999
2008-10-10 07:12 51°10.33 2°38.982 -999 -999 -999 -999 -999
2008-10-10 07:14 51°10.154 2°38.451 -999 -999 -999 -999 -999
2008-10-10 07:16 51°9.979 2°37.92 -999 -999 -999 -999 -999
2008-10-10 07:18 51°9.919 2°37.526 -999 -999 -999 -999 -999
2008-10-10 07:20 51°10.211 2°37.241 -999 -999 -999 -999 -999
2008-10-10 07:22 51°10.503 2°36.81 -999 -999 -999 -999 -999
2008-10-10 07:24 51°10.882 2°36.712 -999 -999 -999 -999 -999
2008-10-10 07:26 51°11.287 2°36.942 -999 -999 -999 -999 -999
2008-10-10 07:28 51°11.668 2°37.265 -999 -999 -999 -999 -999
2008-10-10 07:30 51°12.04 2°37.618 -999 -999 -999 -999 -999
2008-10-10 07:32 51°12.419 2°37.95 -999 -999 -999 -999 -999
2008-10-10 07:34 51°12.798 2°38.273 -999 -999 -999 -999 -999
2008-10-10 07:36 51°13.17 2°38.621 -999 -999 -999 -999 -999
2008-10-10 07:38 51°13.544 2°38.966 -999 -999 -999 -999 -999
2008-10-10 07:40 51°13.923 2°39.284 -999 -999 -999 -999 -999
2008-10-10 07:42 51°14.302 2°39.596 -999 -999 -999 -999 -999
2008-10-10 07:44 51°14.684 2°39.895 -999 -999 -999 -999 -999
2008-10-10 07:46 51°15.074 2°40.163 -999 -999 -999 -999 -999
2008-10-10 07:48 51°15.467 2°40.416 -999 -999 -999 -999 -999
2008-10-10 07:50 51°15.859 2°40.683 -999 -999 -999 -999 -999
2008-10-10 07:52 51°16.253 2°40.939 -999 -999 -999 -999 -999
2008-10-10 07:54 51°16.647 2°41.204 -999 -999 -999 -999 -999
2008-10-10 07:56 51°17.043 2°41.464 -999 -999 -999 -999 -999
2008-10-10 07:58 51°17.451 2°41.621 -999 -999 -999 -999 -999
2008-10-10 08:00 51°17.873 2°41.637 -999 -999 -999 -999 -999
2008-10-10 08:02 51°18.296 2°41.659 -999 -999 -999 -999 -999
2008-10-10 08:04 51°18.724 2°41.696 -999 -999 -999 -999 -999
2008-10-10 08:06 51°19.147 2°41.73 -999 -999 -999 -999 -999
2008-10-10 08:08 51°19.543 2°41.585 -999 -999 -999 -999 -999
2008-10-10 08:10 51°19.941 2°41.413 -999 -999 -999 -999 -999
2008-10-10 08:12 51°20.36 2°41.404 -999 -999 -999 -999 -999
2008-10-10 08:14 51°20.783 2°41.418 -999 -999 -999 -999 -999
2008-10-10 08:16 51°21.208 2°41.436 -999 -999 -999 -999 -999
2008-10-10 08:18 51°21.631 2°41.478 -999 -999 -999 -999 -999
2008-10-10 08:20 51°21.972 2°41.903 -999 -999 -999 -999 -999
2008-10-10 08:22 51°22.251 2°42.444 -999 -999 -999 -999 -999
2008-10-10 08:24 51°22.572 2°42.909 -999 -999 -999 -999 -999
2008-10-10 08:26 51°22.988 2°42.943 -999 -999 -999 -999 -999
2008-10-10 08:28 51°23.408 2°42.866 -999 -999 -999 -999 -999
2008-10-10 08:30 51°23.826 2°42.765 -999 -999 -999 -999 -999
2008-10-10 08:32 51°24.244 2°42.663 -999 -999 -999 -999 -999
2008-10-10 08:34 51°24.663 2°42.558 -999 -999 -999 -999 -999
2008-10-10 08:36 51°25.084 2°42.451 -999 -999 -999 -999 -999
2008-10-10 08:38 51°25.503 2°42.336 -999 -999 -999 -999 -999
2008-10-10 08:40 51°25.846 2°42.253 -999 -999 -999 -999 -999
2008-10-10 08:42 51°26.055 2°42.242 -999 -999 -999 -999 -999
2008-10-10 08:44 51°26.056 2°42.464 -999 -999 -999 -999 -999
2008-10-10 08:46 51°26.085 2°42.935 -999 -999 -999 -999 -999
2008-10-10 08:48 51°26.337 2°43.493 -999 -999 -999 -999 -999
2008-10-10 08:50 51°26.642 2°43.983 -999 -999 -999 -999 -999
2008-10-10 08:52 51°26.95 2°44.478 -999 -999 -999 -999 -999
2008-10-10 08:54 51°27.255 2°44.978 -999 -999 -999 -999 -999
2008-10-10 08:56 51°27.59 2°45.419 -999 -999 -999 -999 -999
2008-10-10 08:58 51°27.932 2°45.856 -999 -999 -999 -999 -999
2008-10-10 09:00 51°28.27 2°46.307 -999 -999 -999 -999 -999
2008-10-10 09:02 51°28.604 2°46.751 -999 -999 -999 -999 -999
2008-10-10 09:04 51°28.938 2°47.203 -999 -999 -999 -999 -999
2008-10-10 09:06 51°29.29 2°47.614 -999 -999 -999 -999 -999
2008-10-10 09:08 51°29.648 2°48.011 -999 -999 -999 -999 -999
2008-10-10 09:10 51°30.005 2°48.401 -999 -999 -999 -999 -999
2008-10-10 09:12 51°30.364 2°48.796 -999 -999 -999 -999 -999
2008-10-10 09:14 51°30.719 2°49.197 -999 -999 -999 -999 -999
2008-10-10 09:16 51°31.076 2°49.592 -999 -999 -999 -999 -999
2008-10-10 09:18 51°31.436 2°49.998 -999 -999 -999 -999 -999
2008-10-10 09:20 51°31.598 2°50.589 -999 -999 -999 -999 -999
2008-10-10 09:22 51°31.678 2°51.192 -999 -999 -999 -999 -999
2008-10-10 09:24 51°31.694 2°51.654 -999 -999 -999 -999 -999
2008-10-10 09:26 51°31.718 2°52.037 -999 -999 -999 -999 -999
2008-10-10 09:28 51°31.76 2°52.147 -999 -999 -999 -999 -999
2008-10-10 09:30 51°31.793 2°52.125 -999 -999 -999 -999 -999
2008-10-10 09:32 51°31.831 2°52.146 -999 -999 -999 -999 -999
2008-10-10 09:34 51°31.884 2°52.222 -999 -999 -999 -999 -999
2008-10-10 09:36 51°31.838 2°52.313 -999 -999 -999 -999 -999
2008-10-10 09:38 51°31.864 2°51.935 -999 -999 -999 -999 -999
2008-10-10 09:40 51°32.239 2°51.649 -999 -999 -999 -999 -999
2008-10-10 09:42 51°32.663 2°51.516 -999 -999 -999 -999 -999
2008-10-10 09:44 51°32.918 2°51.565 -999 -999 -999 -999 -999
2008-10-10 09:46 51°33.052 2°51.639 -999 -999 -999 -999 -999
2008-10-10 09:48 51°33.151 2°51.656 -999 -999 -999 -999 -999
2008-10-10 09:50 51°33.209 2°51.686 -999 -999 -999 -999 -999
2008-10-10 09:52 51°33.243 2°51.65 -999 -999 -999 -999 -999
2008-10-10 09:54 51°33.152 2°51.588 -999 -999 -999 -999 -999
2008-10-10 09:56 51°33.12 2°51.637 -999 -999 -999 -999 -999
2008-10-10 09:58 51°33.176 2°51.683 -999 -999 -999 -999 -999
2008-10-10 10:00 51°33.22 2°51.771 -999 -999 -999 -999 -999
2008-10-10 10:02 51°33.436 2°51.914 -999 -999 -999 -999 -999
2008-10-10 10:04 51°33.822 2°52.188 -999 -999 -999 -999 -999
2008-10-10 10:06 51°34.041 2°52.472 -999 -999 -999 -999 -999
2008-10-10 10:08 51°34.142 2°52.474 -999 -999 -999 -999 -999
2008-10-10 10:10 51°34.2 2°52.505 -999 -999 -999 -999 -999
2008-10-10 10:12 51°34.25 2°52.558 -999 -999 -999 -999 -999
2008-10-10 10:14 51°34.299 2°52.627 -999 -999 -999 -999 -999
2008-10-10 10:16 51°34.432 2°52.684 -999 -999 -999 -999 -999
2008-10-10 10:18 51°34.692 2°53.178 -999 -999 -999 -999 -999
2008-10-10 10:20 51°34.869 2°53.833 -999 -999 -999 -999 -999
2008-10-10 10:22 51°35.05 2°54.483 -999 -999 -999 -999 -999
2008-10-10 10:24 51°35.233 2°55.131 -999 -999 -999 -999 -999
2008-10-10 10:26 51°35.418 2°55.776 -999 -999 -999 -999 -999
2008-10-10 10:28 51°35.594 2°56.416 -999 -999 -999 -999 -999
2008-10-10 10:30 51°35.788 2°57.045 -999 -999 -999 -999 -999
2008-10-10 10:32 51°36.046 2°57.621 -999 -999 -999 -999 -999
2008-10-10 10:34 51°36.287 2°57.859 -999 -999 -999 -999 -999
2008-10-10 10:36 51°36.448 2°57.984 -999 -999 -999 -999 -999
2008-10-10 10:38 51°36.538 2°57.981 -999 -999 -999 -999 -999
2008-10-10 10:40 51°36.587 2°58.015 -999 -999 -999 -999 -999
2008-10-10 10:42 51°36.637 2°58.063 -999 -999 -999 -999 -999
2008-10-10 10:44 51°36.638 2°57.969 -999 -999 -999 -999 -999
2008-10-10 10:46 51°36.546 2°57.847 -999 -999 -999 -999 -999
2008-10-10 10:48 51°36.54 2°57.905 -999 -999 -999 -999 -999
2008-10-10 10:50 51°36.555 2°57.986 -999 -999 -999 -999 -999
2008-10-10 10:52 51°36.58 2°58.061 -999 -999 -999 -999 -999
2008-10-10 10:54 51°36.573 2°58.134 -999 -999 -999 -999 -999
2008-10-10 10:56 51°36.523 2°58.041 -999 -999 -999 -999 -999
2008-10-10 10:58 51°36.446 2°57.943 -999 -999 -999 -999 -999
2008-10-10 11:00 51°36.495 2°57.929 -999 -999 -999 -999 -999
2008-10-10 11:02 51°36.546 2°57.98 -999 -999 -999 -999 -999
2008-10-10 11:04 51°36.594 2°58.038 -999 -999 -999 -999 -999
2008-10-10 11:06 51°36.642 2°58.097 -999 -999 -999 -999 -999
2008-10-10 11:08 51°36.689 2°58.154 -999 -999 -999 -999 -999
2008-10-10 11:10 51°36.744 2°58.125 -999 -999 -999 -999 -999
2008-10-10 11:12 51°36.733 2°58.071 -999 -999 -999 -999 -999
2008-10-10 11:14 51°36.721 2°58.073 -999 -999 -999 -999 -999
2008-10-10 11:16 51°36.745 2°58.065 -999 -999 -999 -999 -999
2008-10-10 11:18 51°36.714 2°58.067 -999 -999 -999 -999 -999
2008-10-10 11:20 51°36.693 2°58.057 -999 -999 -999 -999 -999
2008-10-10 11:22 51°36.712 2°58.051 -999 -999 -999 -999 -999
2008-10-10 11:24 51°36.734 2°58.039 -999 -999 -999 -999 -999
2008-10-10 11:26 51°36.738 2°58.072 -999 -999 -999 -999 -999
2008-10-10 11:28 51°36.696 2°58.069 -999 -999 -999 -999 -999
2008-10-10 11:30 51°36.66 2°58.023 -999 -999 -999 -999 -999
2008-10-10 11:32 51°36.692 2°58.016 -999 -999 -999 -999 -999
2008-10-10 11:34 51°36.745 2°58.06 -999 -999 -999 -999 -999
2008-10-10 11:36 51°36.804 2°58.073 -999 -999 -999 -999 -999
2008-10-10 11:38 51°36.855 2°58.112 -999 -999 -999 -999 -999
2008-10-10 11:40 51°36.903 2°58.162 -999 -999 -999 -999 -999
2008-10-10 11:42 51°36.949 2°58.214 -999 -999 -999 -999 -999
2008-10-10 11:44 51°36.994 2°58.268 -999 -999 -999 -999 -999
2008-10-10 11:46 51°37.039 2°58.326 -999 -999 -999 -999 -999
2008-10-10 11:48 51°37.083 2°58.381 -999 -999 -999 -999 -999
2008-10-10 11:50 51°37.127 2°58.438 -999 -999 -999 -999 -999
2008-10-10 11:52 51°37.17 2°58.494 -999 -999 -999 -999 -999
2008-10-10 11:54 51°37.222 2°58.492 -999 -999 -999 -999 -999
2008-10-10 11:56 51°37.218 2°58.418 -999 -999 -999 -999 -999
2008-10-10 11:58 51°37.103 2°58.355 -999 -999 -999 -999 -999
2008-10-10 13:00 51°36.872 2°58.284 -999 -999 -999 -999 -999
2008-10-10 13:02 51°36.914 2°58.276 -999 -999 -999 -999 -999
2008-10-10 13:04 51°36.906 2°58.182 -999 -999 -999 -999 -999
2008-10-10 13:06 51°36.904 2°58.154 -999 -999 -999 -999 -999
2008-10-10 13:08 51°36.943 2°58.175 -999 -999 -999 -999 -999
2008-10-10 13:10 51°36.98 2°58.218 -999 -999 -999 -999 -999
2008-10-10 13:12 51°37.012 2°58.259 -999 -999 -999 -999 -999
2008-10-10 13:14 51°37.043 2°58.287 -999 -999 -999 -999 -999
2008-10-10 13:16 51°37.085 2°58.262 -999 -999 -999 -999 -999
2008-10-10 13:18 51°37.024 2°58.146 -999 -999 -999 -999 -999
2008-10-10 13:20 51°36.912 2°58.027 -999 -999 -999 -999 -999
2008-10-10 13:22 51°36.898 2°58.03 -999 -999 -999 -999 -999
2008-10-10 13:24 51°36.924 2°58.066 -999 -999 -999 -999 -999
2008-10-10 13:26 51°36.871 2°58.091 -999 -999 -999 -999 -999
2008-10-10 13:28 51°36.788 2°58.051 -999 -999 -999 -999 -999
2008-10-10 13:30 51°36.725 2°58.032 -999 -999 -999 -999 -999
2008-10-10 13:32 51°36.718 2°58.039 -999 -999 -999 -999 -999
2008-10-10 13:34 51°36.748 2°58.063 -999 -999 -999 -999 -999
2008-10-10 13:36 51°36.785 2°58.081 -999 -999 -999 -999 -999
2008-10-10 13:38 51°36.819 2°58.105 -999 -999 -999 -999 -999
2008-10-10 13:40 51°36.849 2°58.133 -999 -999 -999 -999 -999
2008-10-10 13:42 51°36.876 2°58.16 -999 -999 -999 -999 -999
2008-10-10 13:44 51°36.902 2°58.186 -999 -999 -999 -999 -999
2008-10-10 13:46 51°36.932 2°58.212 -999 -999 -999 -999 -999
2008-10-10 13:48 51°36.961 2°58.237 -999 -999 -999 -999 -999
2008-10-10 13:50 51°36.917 2°58.279 -999 -999 -999 -999 -999
2008-10-10 13:52 51°36.78 2°58.151 -999 -999 -999 -999 -999
2008-10-10 13:54 51°36.823 2°58.024 -999 -999 -999 -999 -999
2008-10-10 13:56 51°36.907 2°57.985 -999 -999 -999 -999 -999
2008-10-10 13:58 51°36.956 2°57.957 -999 -999 -999 -999 -999
2008-10-10 14:00 51°36.986 2°57.954 -999 -999 -999 -999 -999
2008-10-10 14:02 51°37.012 2°57.973 -999 -999 -999 -999 -999
2008-10-10 14:04 51°37.03 2°58 -999 -999 -999 -999 -999
2008-10-10 14:06 51°37.107 2°58.074 -999 -999 -999 -999 -999
2008-10-10 14:08 51°36.909 2°58.223 -999 -999 -999 -999 -999
2008-10-10 14:10 51°36.531 2°58.214 -999 -999 -999 -999 -999
2008-10-10 14:12 51°36.134 2°58.242 -999 -999 -999 -999 -999
2008-10-10 14:14 51°35.741 2°58.26 -999 -999 -999 -999 -999
2008-10-10 14:16 51°35.345 2°58.282 -999 -999 -999 -999 -999
2008-10-10 14:18 51°34.947 2°58.304 -999 -999 -999 -999 -999
2008-10-10 14:20 51°34.552 2°58.328 -999 -999 -999 -999 -999
2008-10-10 14:22 51°34.155 2°58.331 -999 -999 -999 -999 -999
2008-10-10 14:24 51°33.759 2°58.344 -999 -999 -999 -999 -999
2008-10-10 14:26 51°33.365 2°58.373 -999 -999 -999 -999 -999
2008-10-10 14:28 51°32.97 2°58.382 -999 -999 -999 -999 -999
2008-10-10 14:30 51°32.574 2°58.385 -999 -999 -999 -999 -999
2008-10-10 14:32 51°32.174 2°58.355 -999 -999 -999 -999 -999
2008-10-10 14:34 51°31.778 2°58.191 -999 -999 -999 -999 -999
2008-10-10 14:36 51°31.379 2°58.049 -999 -999 -999 -999 -999
2008-10-10 14:38 51°30.98 2°57.92 -999 -999 -999 -999 -999
2008-10-10 14:40 51°30.582 2°57.792 -999 -999 -999 -999 -999
2008-10-10 14:42 51°30.184 2°57.656 -999 -999 -999 -999 -999
2008-10-10 14:44 51°29.786 2°57.511 -999 -999 -999 -999 -999
2008-10-10 14:46 51°29.38 2°57.424 -999 -999 -999 -999 -999
2008-10-10 14:48 51°28.974 2°57.317 -999 -999 -999 -999 -999
2008-10-10 14:50 51°28.57 2°57.181 -999 -999 -999 -999 -999
2008-10-10 14:52 51°28.166 2°57.026 -999 -999 -999 -999 -999
2008-10-10 14:54 51°27.768 2°56.833 -999 -999 -999 -999 -999
2008-10-10 14:56 51°27.368 2°56.651 -999 -999 -999 -999 -999
2008-10-10 14:58 51°26.973 2°56.454 -999 -999 -999 -999 -999
2008-10-10 15:00 51°26.611 2°56.12 -999 -999 -999 -999 -999
2008-10-10 15:02 51°26.232 2°55.844 -999 -999 -999 -999 -999
2008-10-10 15:04 51°25.836 2°55.644 -999 -999 -999 -999 -999
2008-10-10 15:06 51°25.446 2°55.42 -999 -999 -999 -999 -999
2008-10-10 15:08 51°25.055 2°55.194 -999 -999 -999 -999 -999
2008-10-10 15:10 51°24.658 2°54.978 -999 -999 -999 -999 -999
2008-10-10 15:12 51°24.26 2°54.75 -999 -999 -999 -999 -999
2008-10-10 15:14 51°23.871 2°54.495 -999 -999 -999 -999 -999
2008-10-10 15:16 51°23.482 2°54.232 -999 -999 -999 -999 -999
2008-10-10 15:18 51°23.088 2°53.982 -999 -999 -999 -999 -999
2008-10-10 15:20 51°22.699 2°53.716 -999 -999 -999 -999 -999
2008-10-10 15:22 51°22.3 2°53.493 -999 -999 -999 -999 -999
2008-10-10 15:24 51°21.9 2°53.278 -999 -999 -999 -999 -999
2008-10-10 15:26 51°21.49 2°53.135 -999 -999 -999 -999 -999
2008-10-10 15:28 51°21.081 2°53.032 -999 -999 -999 -999 -999
2008-10-10 15:30 51°20.674 2°52.922 -999 -999 -999 -999 -999
2008-10-10 15:32 51°20.259 2°52.785 -999 -999 -999 -999 -999
2008-10-10 15:34 51°19.846 2°52.644 -999 -999 -999 -999 -999
2008-10-10 15:36 51°19.434 2°52.491 -999 -999 -999 -999 -999
2008-10-10 15:38 51°19.024 2°52.319 -999 -999 -999 -999 -999
2008-10-10 15:40 51°18.608 2°52.219 -999 -999 -999 -999 -999
2008-10-10 15:42 51°18.193 2°52.161 -999 -999 -999 -999 -999
2008-10-10 15:44 51°17.772 2°52.128 -999 -999 -999 -999 -999
2008-10-10 15:46 51°17.351 2°52.071 -999 -999 -999 -999 -999
2008-10-10 15:48 51°16.932 2°52.112 -999 -999 -999 -999 -999
2008-10-10 15:50 51°16.531 2°52.274 -999 -999 -999 -999 -999
2008-10-10 15:52 51°16.145 2°52.498 -999 -999 -999 -999 -999
2008-10-10 15:54 51°15.821 2°52.871 -999 -999 -999 -999 -999
2008-10-10 15:56 51°15.531 2°53.303 -999 -999 -999 -999 -999
2008-10-10 15:58 51°15.236 2°53.729 -999 -999 -999 -999 -999
2008-10-10 16:00 51°15.086 2°54.13 -999 -999 -999 -999 -999
2008-10-10 16:02 51°15.087 2°54.232 -999 -999 -999 -999 -999
2008-10-10 16:04 51°15.086 2°54.263 -999 -999 -999 -999 -999
2008-10-10 16:06 51°15.076 2°54.277 -999 -999 -999 -999 -999
2008-10-10 16:08 51°15.063 2°54.278 -999 -999 -999 -999 -999
2008-10-10 16:10 51°15.026 2°54.325 -999 -999 -999 -999 -999
2008-10-10 16:12 51°14.867 2°54.523 -999 -999 -999 -999 -999
2008-10-10 16:14 51°14.556 2°54.868 -999 -999 -999 -999 -999